createdAt,value
2018-04-09T00:02:55.096Z,76.20
2018-04-09T00:04:56.542Z,75.10
2018-04-09T00:09:25.061Z,77.40
2018-04-09T00:11:26.485Z,76.70
2018-04-09T00:13:27.627Z,77.50
2018-04-09T00:15:28.834Z,77.90
2018-04-09T00:19:55.825Z,77.90
2018-04-09T00:21:56.975Z,78.70
2018-04-09T00:23:58.058Z,78.50
2018-04-09T00:25:59.429Z,78.80
2018-04-09T00:28:00.499Z,77.30
2018-04-09T00:30:01.638Z,79.00
2018-04-09T00:34:24.926Z,85.10
2018-04-09T00:36:26.002Z,88.80
2018-04-09T00:38:27.138Z,90.20
2018-04-09T00:40:29.272Z,90.50
2018-04-09T00:49:10.797Z,87.20
2018-04-09T00:51:12.122Z,87.60
2018-04-09T00:55:46.352Z,86.80
2018-04-09T00:57:47.696Z,88.60
2018-04-09T00:59:49.931Z,87.10
2018-04-09T01:01:53.325Z,87.00
2018-04-09T01:06:23.942Z,87.00
2018-04-09T01:08:25.283Z,87.90
2018-04-09T01:13:04.033Z,89.90
2018-04-09T01:15:05.096Z,90.90
2018-04-09T01:19:29.731Z,91.10
2018-04-09T01:23:49.248Z,91.00
2018-04-09T01:25:50.450Z,90.90
2018-04-09T01:33:08.628Z,90.70
2018-04-09T01:35:11.593Z,91.10
2018-04-09T01:37:12.910Z,91.20
2018-04-09T01:41:55.702Z,91.50
2018-04-09T01:43:57.023Z,91.30
2018-04-09T01:48:35.316Z,91.30
2018-04-09T01:50:36.484Z,90.40
2018-04-09T01:52:37.946Z,90.50
2018-04-09T02:00:37.973Z,90.40
2018-04-09T02:02:39.126Z,90.50
2018-04-09T02:07:15.553Z,91.10
2018-04-09T02:13:59.164Z,91.20
2018-04-09T02:16:08.706Z,92.20
2018-04-09T02:23:25.802Z,92.30
2018-04-09T02:25:27.078Z,92.20
2018-04-09T02:27:28.355Z,92.90
2018-04-09T02:32:12.137Z,92.60
2018-04-09T02:34:14.834Z,93.20
2018-04-09T02:36:41.477Z,93.20
2018-04-09T02:46:42.670Z,92.70
2018-04-09T02:48:44.599Z,93.40
2018-04-09T02:53:42.225Z,93.10
2018-04-09T02:58:13.027Z,93.20
2018-04-09T03:05:20.064Z,93.10
2018-04-09T03:07:21.256Z,93.50
2018-04-09T03:09:40.408Z,93.00
2018-04-09T03:11:41.654Z,93.50
2018-04-09T03:13:42.740Z,93.20
2018-04-09T03:18:33.493Z,93.50
2018-04-09T03:25:30.639Z,92.50
2018-04-09T03:27:33.762Z,93.20
2018-04-09T03:29:34.864Z,93.20
2018-04-09T03:31:37.032Z,91.60
2018-04-09T03:34:04.586Z,92.30
2018-04-09T03:36:09.560Z,92.30
2018-04-09T03:38:12.486Z,94.00
2018-04-09T03:40:13.719Z,94.50
2018-04-09T03:42:15.063Z,94.90
2018-04-09T03:44:16.311Z,95.30
2018-04-09T03:46:18.699Z,95.50
2018-04-09T03:48:20.138Z,95.50
2018-04-09T03:50:21.385Z,95.40
2018-04-09T03:52:22.401Z,95.30
2018-04-09T03:54:24.209Z,93.30
2018-04-09T03:56:25.213Z,93.20
2018-04-09T03:58:26.261Z,94.30
2018-04-09T04:00:27.259Z,94.10
2018-04-09T04:02:28.279Z,94.60
2018-04-09T04:04:29.337Z,95.20
2018-04-09T04:06:30.400Z,95.70
2018-04-09T04:08:31.461Z,95.00
2018-04-09T04:10:32.469Z,93.30
2018-04-09T04:12:33.495Z,93.90
2018-04-09T04:14:34.504Z,94.30
2018-04-09T04:16:47.808Z,94.50
2018-04-09T04:19:00.998Z,95.40
2018-04-09T04:21:14.384Z,95.60
2018-04-09T04:23:15.433Z,94.80
2018-04-09T04:25:16.466Z,95.50
2018-04-09T04:27:17.729Z,95.70
2018-04-09T04:29:18.814Z,96.00
2018-04-09T04:31:19.795Z,95.70
2018-04-09T04:33:20.887Z,95.50
2018-04-09T04:35:22.020Z,95.40
2018-04-09T04:37:22.997Z,95.10
2018-04-09T04:39:24.023Z,95.50
2018-04-09T04:41:25.077Z,95.70
2018-04-09T04:43:26.045Z,95.40
2018-04-09T04:45:27.181Z,94.60
2018-04-09T04:47:28.222Z,95.50
2018-04-09T04:49:29.445Z,95.20
2018-04-09T04:51:30.463Z,95.40
2018-04-09T04:53:31.532Z,95.60
2018-04-09T04:55:32.528Z,94.70
2018-04-09T04:57:33.652Z,94.30
2018-04-09T04:59:34.761Z,95.40
2018-04-09T05:01:35.927Z,95.80
2018-04-09T05:03:36.966Z,96.10
2018-04-09T05:05:38.078Z,96.00
2018-04-09T05:07:39.149Z,96.50
2018-04-09T05:09:40.185Z,96.40
2018-04-09T05:11:41.252Z,96.50
2018-04-09T05:13:42.212Z,95.80
2018-04-09T05:15:43.340Z,95.70
2018-04-09T05:17:44.619Z,95.50
2018-04-09T05:19:45.757Z,95.00
2018-04-09T05:21:46.876Z,95.20
2018-04-09T05:23:47.928Z,94.50
2018-04-09T05:25:48.995Z,94.40
2018-04-09T05:27:49.994Z,95.60
2018-04-09T05:29:50.966Z,95.10
2018-04-09T05:31:52.047Z,95.10
2018-04-09T05:33:53.063Z,95.60
2018-04-09T05:35:54.088Z,96.50
2018-04-09T05:37:55.104Z,96.20
2018-04-09T05:39:56.135Z,96.20
2018-04-09T05:41:57.132Z,96.10
2018-04-09T05:43:58.164Z,96.20
2018-04-09T05:45:59.181Z,96.50
2018-04-09T05:48:00.256Z,96.90
2018-04-09T05:50:01.306Z,97.00
2018-04-09T05:52:02.301Z,98.10
2018-04-09T05:54:03.289Z,98.80
2018-04-09T05:56:04.326Z,98.20
2018-04-09T05:58:05.380Z,98.30
2018-04-09T06:00:06.388Z,98.10
2018-04-09T06:02:07.359Z,98.20
2018-04-09T06:04:08.355Z,97.70
2018-04-09T06:06:09.373Z,97.40
2018-04-09T06:08:10.389Z,97.10
2018-04-09T06:10:11.443Z,96.80
2018-04-09T06:12:12.431Z,96.10
2018-04-09T06:14:14.169Z,95.90
2018-04-09T06:16:15.168Z,95.90
2018-04-09T06:18:16.132Z,95.50
2018-04-09T06:20:17.344Z,95.80
2018-04-09T06:22:18.315Z,94.80
2018-04-09T06:24:19.265Z,94.40
2018-04-09T06:26:20.296Z,92.80
2018-04-09T06:28:21.287Z,93.20
2018-04-09T06:30:22.265Z,92.70
2018-04-09T06:32:23.293Z,92.40
2018-04-09T06:34:24.360Z,93.30
2018-04-09T06:36:25.525Z,92.00
2018-04-09T06:38:26.640Z,92.30
2018-04-09T06:40:27.674Z,88.10
2018-04-09T06:42:28.688Z,86.10
2018-04-09T06:44:29.703Z,87.30
2018-04-09T06:46:31.435Z,84.30
2018-04-09T06:48:32.427Z,84.30
2018-04-09T06:50:33.411Z,85.80
2018-04-09T06:52:34.384Z,82.20
2018-04-09T06:54:35.376Z,83.80
2018-04-09T06:56:36.358Z,80.80
2018-04-09T06:58:37.356Z,80.30
2018-04-09T07:00:38.460Z,82.40
2018-04-09T07:02:39.463Z,81.20
2018-04-09T07:04:40.441Z,81.30
2018-04-09T07:06:41.549Z,80.60
2018-04-09T07:08:42.589Z,77.50
2018-04-09T07:10:43.613Z,78.40
2018-04-09T07:12:44.589Z,74.40
2018-04-09T07:14:45.539Z,72.00
2018-04-09T07:16:46.554Z,71.30
2018-04-09T07:18:47.532Z,73.90
2018-04-09T07:20:48.545Z,71.10
2018-04-09T07:22:49.533Z,68.50
2018-04-09T07:24:50.568Z,68.00
2018-04-09T07:26:51.621Z,69.10
2018-04-09T07:28:52.596Z,66.80
2018-04-09T07:30:53.652Z,67.50
2018-04-09T07:32:54.749Z,66.80
2018-04-09T07:34:55.827Z,67.00
2018-04-09T07:36:56.907Z,67.60
2018-04-09T07:38:57.951Z,74.00
2018-04-09T07:40:58.948Z,66.10
2018-04-09T07:43:00.748Z,59.50
2018-04-09T07:45:01.733Z,59.50
2018-04-09T07:47:02.721Z,58.30
2018-04-09T07:49:03.714Z,57.50
2018-04-09T07:51:04.689Z,54.40
2018-04-09T07:53:06.446Z,53.00
2018-04-09T07:55:07.496Z,52.90
2018-04-09T07:57:09.244Z,55.00
2018-04-09T07:59:10.212Z,55.00
2018-04-09T08:01:11.269Z,52.00
2018-04-09T08:03:12.273Z,52.60
2018-04-09T08:05:13.702Z,48.90
2018-04-09T08:07:14.744Z,48.90
2018-04-09T08:09:15.718Z,49.20
2018-04-09T08:11:16.680Z,47.20
2018-04-09T08:13:17.659Z,46.50
2018-04-09T08:15:18.639Z,46.00
2018-04-09T08:17:19.624Z,47.60
2018-04-09T08:19:20.585Z,47.10
2018-04-09T08:21:22.279Z,46.60
2018-04-09T08:23:23.278Z,46.60
2018-04-09T08:25:24.259Z,43.60
2018-04-09T08:27:25.276Z,43.00
2018-04-09T08:29:26.276Z,44.40
2018-04-09T08:31:27.260Z,42.60
2018-04-09T08:33:28.215Z,44.40
2018-04-09T08:35:29.189Z,44.70
2018-04-09T08:37:30.166Z,46.20
2018-04-09T08:39:31.120Z,41.70
2018-04-09T08:41:32.856Z,41.90
2018-04-09T08:43:33.858Z,43.70
2018-04-09T08:45:35.586Z,46.90
2018-04-09T08:47:36.544Z,46.20
2018-04-09T08:49:38.257Z,42.50
2018-04-09T08:51:40.033Z,45.10
2018-04-09T08:53:41.859Z,45.40
2018-04-09T08:55:42.846Z,45.30
2018-04-09T08:57:43.896Z,44.10
2018-04-09T08:59:45.614Z,42.90
2018-04-09T09:01:46.621Z,42.80
2018-04-09T09:03:47.597Z,41.70
2018-04-09T09:05:48.625Z,41.10
2018-04-09T09:07:49.620Z,39.20
2018-04-09T09:09:50.607Z,36.70
2018-04-09T09:11:51.565Z,36.40
2018-04-09T09:13:52.541Z,36.00
2018-04-09T09:15:53.521Z,36.00
2018-04-09T09:17:55.239Z,36.20
2018-04-09T09:19:56.267Z,36.20
2018-04-09T09:21:57.317Z,35.20
2018-04-09T09:23:58.289Z,34.20
2018-04-09T09:25:59.266Z,35.50
2018-04-09T09:28:00.259Z,35.60
2018-04-09T09:30:01.240Z,38.80
2018-04-09T09:32:02.223Z,34.70
2018-04-09T09:34:03.187Z,36.00
2018-04-09T09:36:04.171Z,35.20
2018-04-09T09:38:05.152Z,36.20
2018-04-09T09:40:06.856Z,33.90
2018-04-09T09:42:07.829Z,33.70
2018-04-09T09:44:08.828Z,32.70
2018-04-09T09:46:09.852Z,37.50
2018-04-09T09:48:11.632Z,36.20
2018-04-09T09:50:13.386Z,32.30
2018-04-09T09:52:14.415Z,32.30
2018-04-09T09:54:15.425Z,36.10
2018-04-09T09:56:16.465Z,34.50
2018-04-09T09:58:17.440Z,32.00
2018-04-09T10:00:18.456Z,32.00
2018-04-09T10:02:19.458Z,32.00
2018-04-09T10:04:20.435Z,34.10
2018-04-09T10:06:21.451Z,34.10
2018-04-09T10:08:23.159Z,34.70
2018-04-09T10:10:24.166Z,33.70
2018-04-09T10:12:25.919Z,31.10
2018-04-09T10:14:26.931Z,31.20
2018-04-09T10:16:27.895Z,31.90
2018-04-09T10:18:28.901Z,32.70
2018-04-09T10:20:29.858Z,32.10
2018-04-09T10:22:30.880Z,32.20
2018-04-09T10:24:31.876Z,32.40
2018-04-09T10:26:32.886Z,32.80
2018-04-09T10:28:33.881Z,33.00
2018-04-09T10:30:34.891Z,32.90
2018-04-09T10:32:35.913Z,34.50
2018-04-09T10:34:36.889Z,30.50
2018-04-09T10:36:37.848Z,32.90
2018-04-09T10:38:38.864Z,33.70
2018-04-09T10:40:39.907Z,30.80
2018-04-09T10:42:40.919Z,34.50
2018-04-09T10:44:41.949Z,30.00
2018-04-09T10:46:42.937Z,33.30
2018-04-09T10:48:43.978Z,31.00
2018-04-09T10:50:44.948Z,29.10
2018-04-09T10:52:45.972Z,29.30
2018-04-09T10:54:47.695Z,28.10
2018-04-09T10:56:48.664Z,28.10
2018-04-09T10:58:49.648Z,28.60
2018-04-09T11:00:50.648Z,30.10
2018-04-09T11:02:51.631Z,30.30
2018-04-09T11:04:52.620Z,29.70
2018-04-09T11:06:53.615Z,30.00
2018-04-09T11:08:55.348Z,29.50
2018-04-09T11:10:56.360Z,29.50
2018-04-09T11:12:57.432Z,29.90
2018-04-09T11:14:58.397Z,31.60
2018-04-09T11:16:59.395Z,31.30
2018-04-09T11:19:00.437Z,32.60
2018-04-09T11:21:01.392Z,31.60
2018-04-09T11:23:02.371Z,31.90
2018-04-09T11:25:03.339Z,31.60
2018-04-09T11:27:04.312Z,33.00
2018-04-09T11:29:05.402Z,32.40
2018-04-09T11:31:06.423Z,34.50
2018-04-09T11:33:07.447Z,32.30
2018-04-09T11:35:08.424Z,34.30
2018-04-09T11:37:09.445Z,34.40
2018-04-09T11:39:10.472Z,34.40
2018-04-09T11:41:12.279Z,32.70
2018-04-09T11:43:13.290Z,32.60
2018-04-09T11:45:14.998Z,31.60
2018-04-09T11:47:15.934Z,31.60
2018-04-09T11:49:16.946Z,34.50
2018-04-09T11:51:18.688Z,31.70
2018-04-09T11:53:19.695Z,31.70
2018-04-09T11:55:20.650Z,31.20
2018-04-09T11:57:21.705Z,32.30
2018-04-09T11:59:22.822Z,31.70
2018-04-09T12:01:23.778Z,30.50
2018-04-09T12:03:24.818Z,31.00
2018-04-09T12:05:25.850Z,32.90
2018-04-09T12:07:27.597Z,32.50
2018-04-09T12:09:28.583Z,32.40
2018-04-09T12:11:29.638Z,30.20
2018-04-09T12:13:30.803Z,31.50
2018-04-09T12:15:31.915Z,29.20
2018-04-09T12:17:32.905Z,31.60
2018-04-09T12:19:33.922Z,32.80
2018-04-09T12:21:35.184Z,31.90
2018-04-09T12:23:36.336Z,31.60
2018-04-09T12:25:37.372Z,31.90
2018-04-09T12:27:38.414Z,32.50
2018-04-09T12:29:39.445Z,32.40
2018-04-09T12:31:40.453Z,31.80
2018-04-09T12:33:41.557Z,31.40
2018-04-09T12:35:42.611Z,34.00
2018-04-09T12:37:43.823Z,32.30
2018-04-09T12:39:45.036Z,30.10
2018-04-09T12:41:46.565Z,30.20
2018-04-09T12:43:47.874Z,30.20
2018-04-09T12:45:48.951Z,29.80
2018-04-09T12:47:50.017Z,30.00
2018-04-09T12:52:30.459Z,29.60
2018-04-09T12:54:31.917Z,29.60
2018-04-09T12:56:33.006Z,30.20
2018-04-09T12:58:34.169Z,30.60
2018-04-09T13:00:35.291Z,30.60
2018-04-09T13:02:37.190Z,31.90
2018-04-09T13:04:38.287Z,31.80
2018-04-09T13:06:39.875Z,31.10
2018-04-09T13:08:41.074Z,32.00
2018-04-09T13:10:42.108Z,30.80
2018-04-09T13:12:45.041Z,30.90
2018-04-09T13:14:47.621Z,30.90
2018-04-09T13:16:49.251Z,31.00
2018-04-09T13:18:50.511Z,31.60
2018-04-09T13:20:54.205Z,31.20
2018-04-09T13:22:55.652Z,30.20
2018-04-09T13:24:58.534Z,29.30
2018-04-09T13:26:59.670Z,29.20
2018-04-09T13:29:01.254Z,26.70
2018-04-09T13:31:07.463Z,28.20
2018-04-09T13:33:08.606Z,25.90
2018-04-09T13:35:10.108Z,25.50
2018-04-09T13:37:12.036Z,26.00
2018-04-09T13:39:22.289Z,25.90
2018-04-09T13:43:33.609Z,25.90
2018-04-09T13:45:35.560Z,26.20
2018-04-09T13:47:37.941Z,26.30
2018-04-09T13:49:48.403Z,25.80
2018-04-09T13:56:30.404Z,26.00
2018-04-09T13:58:34.897Z,27.90
2018-04-09T14:00:37.279Z,27.60
2018-04-09T14:02:38.471Z,27.50
2018-04-09T14:04:39.997Z,28.20
2018-04-09T14:06:41.931Z,28.70
2018-04-09T14:08:43.430Z,28.20
2018-04-09T14:10:47.360Z,27.50
2018-04-09T14:12:49.764Z,29.50
2018-04-09T14:14:56.741Z,29.50
2018-04-09T14:17:00.224Z,28.70
2018-04-09T14:19:02.316Z,29.60
2018-04-09T14:21:07.275Z,30.00
2018-04-09T14:23:08.320Z,29.20
2018-04-09T14:25:09.403Z,32.40
2018-04-09T14:27:10.705Z,31.50
2018-04-09T14:29:11.747Z,30.80
2018-04-09T14:31:13.198Z,31.30
2018-04-09T14:33:14.341Z,31.00
2018-04-09T14:35:15.679Z,30.90
2018-04-09T14:37:17.783Z,30.00
2018-04-09T14:39:19.112Z,30.00
2018-04-09T14:41:21.852Z,29.70
2018-04-09T14:43:23.606Z,30.90
2018-04-09T14:45:24.727Z,32.40
2018-04-09T14:47:25.876Z,32.20
2018-04-09T14:49:27.433Z,29.20
2018-04-09T14:51:28.768Z,29.90
2018-04-09T14:53:30.058Z,29.90
2018-04-09T14:55:31.455Z,29.20
2018-04-09T14:57:33.110Z,29.40
2018-04-09T14:59:35.645Z,28.50
2018-04-09T15:01:39.702Z,28.70
2018-04-09T15:03:41.152Z,31.00
2018-04-09T15:05:42.631Z,29.80
2018-04-09T15:07:43.723Z,29.30
2018-04-09T15:09:44.828Z,29.20
2018-04-09T15:11:45.896Z,27.70
2018-04-09T15:29:26.500Z,28.30
2018-04-09T15:31:28.849Z,28.60
2018-04-09T15:33:31.432Z,28.50
2018-04-09T15:35:32.512Z,29.50
2018-04-09T15:37:33.613Z,28.20
2018-04-09T15:39:36.492Z,29.40
2018-04-09T15:41:38.086Z,29.30
2018-04-09T15:43:39.816Z,28.50
2018-04-09T15:45:40.886Z,28.60
2018-04-09T15:47:42.252Z,27.90
2018-04-09T15:49:43.787Z,29.30
2018-04-09T15:51:49.908Z,29.80
2018-04-09T15:53:53.207Z,29.20
2018-04-09T15:55:55.492Z,28.90
2018-04-09T15:57:57.492Z,28.80
2018-04-09T15:59:59.130Z,29.00
2018-04-09T16:02:02.000Z,29.10
2018-04-09T16:04:04.281Z,29.10
2018-04-09T16:06:05.933Z,30.10
2018-04-09T16:08:07.274Z,29.90
2018-04-09T16:10:08.747Z,29.10
2018-04-09T16:12:09.907Z,29.60
2018-04-09T16:14:11.021Z,29.00
2018-04-09T16:16:12.949Z,30.80
2018-04-09T16:18:14.296Z,30.80
2018-04-09T16:20:17.488Z,33.50
2018-04-09T16:22:18.929Z,33.50
2018-04-09T16:24:20.329Z,33.10
2018-04-09T16:26:24.021Z,33.60
2018-04-09T16:28:26.712Z,34.00
2018-04-09T16:30:32.651Z,33.70
2018-04-09T16:32:36.573Z,34.40
2018-04-09T16:34:37.675Z,34.30
2018-04-09T16:36:38.775Z,34.00
2018-04-09T16:38:39.872Z,34.60
2018-04-09T16:40:41.693Z,33.70
2018-04-09T16:42:42.962Z,33.70
2018-04-09T16:44:45.325Z,33.40
2018-04-09T16:46:47.637Z,33.30
2018-04-09T16:48:49.852Z,34.20
2018-04-09T16:50:51.091Z,33.60
2018-04-09T16:52:52.361Z,35.40
2018-04-09T16:54:53.488Z,34.20
2018-04-09T16:56:54.538Z,36.50
2018-04-09T16:58:57.831Z,34.20
2018-04-09T17:00:59.723Z,35.90
2018-04-09T17:03:04.628Z,34.80
2018-04-09T17:05:05.807Z,34.60
2018-04-09T17:07:06.871Z,35.20
2018-04-09T17:09:08.233Z,35.50
2018-04-09T17:11:09.457Z,35.00
2018-04-09T17:13:10.789Z,36.20
2018-04-09T17:15:11.927Z,34.70
2018-04-09T17:17:14.473Z,35.10
2018-04-09T17:19:17.520Z,35.00
2018-04-09T17:21:20.548Z,35.20
2018-04-09T17:23:25.502Z,35.10
2018-04-09T17:25:32.473Z,35.70
2018-04-09T17:27:35.485Z,35.10
2018-04-09T17:29:36.582Z,35.80
2018-04-09T17:31:38.596Z,34.60
2018-04-09T17:33:39.837Z,34.50
2018-04-09T17:35:40.903Z,35.00
2018-04-09T17:37:42.135Z,35.90
2018-04-09T17:39:43.918Z,35.10
2018-04-09T17:41:45.456Z,34.80
2018-04-09T17:43:46.777Z,35.10
2018-04-09T17:45:48.213Z,35.90
2018-04-09T17:47:52.129Z,35.00
2018-04-09T17:49:53.481Z,34.90
2018-04-09T17:51:54.718Z,35.40
2018-04-09T17:53:55.742Z,36.70
2018-04-09T17:55:57.181Z,36.70
2018-04-09T17:57:58.328Z,36.70
2018-04-09T17:59:59.734Z,36.60
2018-04-09T18:02:01.859Z,37.10
2018-04-09T18:04:03.436Z,36.90
2018-04-09T18:06:05.835Z,37.10
2018-04-09T18:08:06.868Z,37.80
2018-04-09T18:10:08.297Z,38.80
2018-04-09T18:12:09.538Z,39.60
2018-04-09T18:14:10.598Z,38.50
2018-04-09T18:16:12.313Z,39.60
2018-04-09T18:18:18.479Z,38.50
2018-04-09T18:20:35.766Z,39.20
2018-04-09T18:22:36.891Z,40.60
2018-04-09T18:24:38.105Z,40.00
2018-04-09T18:26:39.870Z,39.80
2018-04-09T18:28:40.911Z,41.10
2018-04-09T18:30:42.103Z,40.20
2018-04-09T18:33:00.012Z,42.30
2018-04-09T18:40:03.740Z,41.30
2018-04-09T18:42:04.863Z,41.70
2018-04-09T18:44:06.357Z,42.80
2018-04-09T18:48:55.430Z,42.20
2018-04-09T18:51:01.634Z,42.50
2018-04-09T18:53:02.811Z,42.60
2018-04-09T18:57:24.120Z,43.60
2018-04-09T19:04:51.065Z,44.00
2018-04-09T19:06:52.762Z,44.10
2018-04-09T19:11:19.057Z,44.40
2018-04-09T19:13:20.997Z,45.00
2018-04-09T19:15:22.179Z,44.70
2018-04-09T19:20:19.060Z,45.80
2018-04-09T19:24:53.481Z,45.80
2018-04-09T19:42:47.596Z,47.40
2018-04-09T19:44:48.688Z,47.80
2018-04-09T19:46:49.940Z,48.20
2018-04-09T19:48:50.975Z,47.70
2018-04-09T19:50:52.158Z,47.40
2018-04-09T19:52:53.207Z,48.30
2018-04-09T19:55:21.369Z,48.00
2018-04-09T19:57:22.583Z,48.30
2018-04-09T19:59:48.857Z,48.20
2018-04-09T20:30:36.967Z,50.70
